Time;durP1;ratioP1;P1;durP2;ratioP2;P2;SDS_P1;SDS_P2;PMS_P1;PMS_P2;Temp;Humidity;BMP_temperature;BMP_pressure;BME280_temperature;BME280_humidity;BME280_pressure;Samples;Min_cycle;Max_cycle;Signal;HPM_P1;HPM_P2
2023/01/14 00:01:19;;;;;;;38.58;3.92;;;;;;;;;;4969795;28;20046;-73
2023/01/14 00:03:47;;;;;;;23.90;3.03;;;;;;;;;;4950431;28;20051;-73
2023/01/14 00:06:16;;;;;;;33.25;3.60;;;;;;;;;;4970395;28;20383;-73
2023/01/14 00:08:43;;;;;;;26.73;3.30;;;;;;;;;;4947602;28;20056;-73
2023/01/14 00:11:11;;;;;;;36.30;3.65;;;;;;;;;;4967684;28;20145;-73
2023/01/14 00:13:40;;;;;;;30.67;3.92;;;;;;;;;;4967212;28;20061;-73
2023/01/14 00:16:08;;;;;;;20.88;3.03;;;;;;;;;;4965818;28;20498;-73
2023/01/14 00:18:35;;;;;;;27.63;3.30;;;;;;;;;;4963814;28;20078;-73
2023/01/14 00:21:04;;;;;;;26.27;3.13;;;;;;;;;;4968320;28;20051;-73
2023/01/14 00:23:34;;;;;;;31.88;4.35;;;;;;;;;;4964336;28;20398;-73
2023/01/14 00:26:02;;;;;;;34.83;4.22;;;;;;;;;;4958505;28;20055;-73
2023/01/14 00:28:29;;;;;;;31.58;4.32;;;;;;;;;;4973469;28;20055;-74
2023/01/14 00:31:02;;;;;;;23.52;3.90;;;;;;;;;;4963234;28;20474;-73
2023/01/14 00:33:29;;;;;;;44.78;3.72;;;;;;;;;;4968353;28;20055;-74
2023/01/14 00:35:56;;;;;;;38.22;4.35;;;;;;;;;;4966065;28;20054;-74
2023/01/14 00:38:23;;;;;;;31.63;4.00;;;;;;;;;;4965414;28;20063;-73
2023/01/14 00:41:00;;;;;;;29.70;4.18;;;;;;;;;;4962324;28;20039;-74
2023/01/14 00:43:27;;;;;;;27.42;3.42;;;;;;;;;;4966195;28;20050;-74
2023/01/14 00:45:55;;;;;;;30.10;3.95;;;;;;;;;;4965721;28;20359;-74
2023/01/14 00:48:22;;;;;;;30.88;3.88;;;;;;;;;;4967991;28;20054;-74
2023/01/14 00:50:49;;;;;;;34.78;4.63;;;;;;;;;;4967024;28;20050;-74
2023/01/14 00:53:16;;;;;;;33.22;3.72;;;;;;;;;;4978379;28;20058;-74
2023/01/14 00:55:43;;;;;;;35.50;3.80;;;;;;;;;;4966956;28;20066;-74
2023/01/14 00:58:12;;;;;;;39.42;4.32;;;;;;;;;;4969629;28;20058;-74
2023/01/14 01:00:39;;;;;;;27.80;4.15;;;;;;;;;;4968852;28;20054;-73
2023/01/14 01:03:06;;;;;;;33.28;4.47;;;;;;;;;;4967582;28;20051;-74
2023/01/14 01:05:37;;;;;;;35.40;4.32;;;;;;;;;;4967088;28;20065;-74
2023/01/14 01:08:05;;;;;;;34.30;4.22;;;;;;;;;;4968560;28;20051;-74
2023/01/14 01:10:32;;;;;;;31.70;4.72;;;;;;;;;;4964902;28;20075;-73
2023/01/14 01:12:59;;;;;;;29.15;3.17;;;;;;;;;;4962097;28;20046;-74
2023/01/14 01:15:28;;;;;;;40.05;4.20;;;;;;;;;;4968092;28;20161;-74
2023/01/14 01:17:55;;;;;;;32.42;3.70;;;;;;;;;;4966268;28;20498;-74
2023/01/14 01:20:22;;;;;;;31.42;4.85;;;;;;;;;;4960529;28;20834;-73
2023/01/14 01:22:49;;;;;;;40.58;6.13;;;;;;;;;;4961226;28;20062;-74
2023/01/14 01:25:17;;;;;;;32.85;3.70;;;;;;;;;;4967814;28;20043;-74
2023/01/14 01:27:44;;;;;;;31.33;4.18;;;;;;;;;;4966415;28;20058;-74
2023/01/14 01:30:12;;;;;;;37.17;4.75;;;;;;;;;;4968069;28;20050;-73
2023/01/14 01:32:41;;;;;;;45.67;5.80;;;;;;;;;;4967593;28;20422;-74
2023/01/14 01:35:08;;;;;;;41.95;3.88;;;;;;;;;;4966134;28;20050;-74
2023/01/14 01:37:35;;;;;;;46.10;6.05;;;;;;;;;;4971484;28;20429;-73
2023/01/14 01:40:03;;;;;;;36.72;4.35;;;;;;;;;;4970618;28;20071;-73
2023/01/14 01:42:33;;;;;;;33.75;5.10;;;;;;;;;;4970518;28;20399;-74
2023/01/14 01:45:11;;;;;;;31.60;4.60;;;;;;;;;;4971035;28;20504;-74
2023/01/14 01:47:38;;;;;;;32.67;4.70;;;;;;;;;;4969982;28;20082;-74
2023/01/14 01:50:07;;;;;;;31.98;3.78;;;;;;;;;;4963041;28;20051;-74
2023/01/14 01:52:35;;;;;;;40.45;5.40;;;;;;;;;;4962789;28;20061;-73
2023/01/14 01:55:03;;;;;;;30.27;4.50;;;;;;;;;;4985107;28;20047;-74
2023/01/14 01:57:32;;;;;;;26.75;3.05;;;;;;;;;;4965737;28;20063;-74
2023/01/14 02:00:00;;;;;;;26.08;3.10;;;;;;;;;;4960746;28;20630;-74
2023/01/14 02:02:29;;;;;;;33.78;4.55;;;;;;;;;;4968786;28;20494;-74
2023/01/14 02:04:56;;;;;;;29.75;4.72;;;;;;;;;;4970014;28;20058;-72
2023/01/14 02:07:26;;;;;;;35.30;4.10;;;;;;;;;;4964289;28;20047;-74
2023/01/14 02:09:54;;;;;;;30.80;3.92;;;;;;;;;;4971651;28;20046;-73
2023/01/14 02:12:28;;;;;;;22.70;3.38;;;;;;;;;;4968699;28;20054;-74
2023/01/14 02:15:02;;;;;;;36.63;3.72;;;;;;;;;;4967933;28;20049;-74
2023/01/14 02:17:32;;;;;;;27.95;3.95;;;;;;;;;;4965414;28;20066;-74
2023/01/14 02:20:10;;;;;;;43.63;5.50;;;;;;;;;;4971336;28;20054;-74
2023/01/14 02:22:50;;;;;;;28.05;3.88;;;;;;;;;;4966530;28;20505;-74
2023/01/14 02:25:30;;;;;;;26.10;3.13;;;;;;;;;;4967099;28;20057;-74
2023/01/14 02:28:01;;;;;;;38.20;3.70;;;;;;;;;;4962356;28;20055;-74
2023/01/14 02:30:36;;;;;;;27.48;3.55;;;;;;;;;;4963275;28;20051;-74
2023/01/14 02:33:07;;;;;;;35.60;3.47;;;;;;;;;;4968047;28;20126;-74
2023/01/14 02:35:41;;;;;;;26.38;3.47;;;;;;;;;;4966306;28;20398;-74
2023/01/14 02:38:15;;;;;;;31.50;4.90;;;;;;;;;;4966141;28;20043;-74
2023/01/14 02:40:44;;;;;;;35.20;3.67;;;;;;;;;;4969489;28;20082;-74
2023/01/14 02:46:02;;;;;;;25.70;3.53;;;;;;;;;;4971530;28;20069;-74
2023/01/14 02:48:31;;;;;;;27.98;3.00;;;;;;;;;;4969209;28;20506;-74
2023/01/14 02:50:58;;;;;;;26.20;3.20;;;;;;;;;;4968759;28;20043;-74
2023/01/14 02:53:25;;;;;;;33.47;4.18;;;;;;;;;;4970677;28;20062;-74
2023/01/14 02:55:53;;;;;;;27.10;3.63;;;;;;;;;;4970700;28;20457;-73
2023/01/14 02:58:41;;;;;;;31.10;3.28;;;;;;;;;;4971000;28;20066;-74
2023/01/14 03:01:15;;;;;;;31.20;4.07;;;;;;;;;;4963828;28;20061;-74
2023/01/14 03:03:48;;;;;;;38.88;4.63;;;;;;;;;;4969654;28;20054;-74
2023/01/14 03:06:21;;;;;;;35.03;4.33;;;;;;;;;;4968664;28;20055;-73
2023/01/14 03:08:48;;;;;;;;;;;;;;;;;;4969274;28;20082;-74
2023/01/14 03:11:16;;;;;;;28.15;4.15;;;;;;;;;;4970862;28;19926;-74
2023/01/14 03:13:53;;;;;;;25.77;2.72;;;;;;;;;;4972504;28;20042;-74
2023/01/14 03:16:25;;;;;;;33.67;3.80;;;;;;;;;;4971476;28;20434;-74
2023/01/14 03:18:55;;;;;;;29.45;3.42;;;;;;;;;;4968106;28;20050;-74
2023/01/14 03:21:25;;;;;;;30.17;3.25;;;;;;;;;;4962674;28;20055;-74
2023/01/14 03:23:55;;;;;;;32.78;4.00;;;;;;;;;;4968166;28;20058;-73
2023/01/14 03:26:23;;;;;;;34.08;5.60;;;;;;;;;;4970825;28;20062;-74
2023/01/14 03:28:52;;;;;;;31.10;3.70;;;;;;;;;;4969986;28;20061;-74
2023/01/14 03:31:22;;;;;;;23.83;3.05;;;;;;;;;;4970034;28;20057;-74
2023/01/14 03:33:53;;;;;;;23.30;3.40;;;;;;;;;;4969755;28;20058;-74
2023/01/14 03:36:21;;;;;;;33.28;3.63;;;;;;;;;;4967220;28;20047;-74
2023/01/14 03:38:49;;;;;;;33.70;4.72;;;;;;;;;;4964429;28;20145;-74
2023/01/14 03:42:17;;;;;;;23.38;2.97;;;;;;;;;;4967148;28;20101;-73
2023/01/14 03:44:08;;;;;;;35.78;3.53;;;;;;;;;;4958372;28;20046;-74
2023/01/14 03:46:35;;;;;;;27.90;3.53;;;;;;;;;;4965225;28;20101;-74
2023/01/14 03:49:04;;;;;;;31.50;3.35;;;;;;;;;;4968376;28;20055;-73
2023/01/14 03:51:34;;;;;;;28.95;3.47;;;;;;;;;;4970844;28;20120;-74
2023/01/14 03:54:08;;;;;;;29.45;4.10;;;;;;;;;;4963810;28;21329;-74
2023/01/14 03:56:35;;;;;;;;;;;;;;;;;;4972993;28;20483;-74
2023/01/14 03:59:05;;;;;;;25.38;3.00;;;;;;;;;;4966082;28;19926;-71
2023/01/14 04:01:35;;;;;;;26.00;3.45;;;;;;;;;;4965998;28;20050;-74
2023/01/14 04:04:04;;;;;;;26.70;3.72;;;;;;;;;;4970155;28;20062;-73
2023/01/14 04:06:31;;;;;;;26.58;3.08;;;;;;;;;;4970653;28;20050;-74
2023/01/14 04:08:58;;;;;;;34.55;3.25;;;;;;;;;;4966603;28;20050;-73
2023/01/14 04:11:26;;;;;;;29.52;4.13;;;;;;;;;;4968122;28;20081;-74
2023/01/14 04:16:38;;;;;;;30.80;3.25;;;;;;;;;;4969642;28;20398;-73
2023/01/14 04:19:06;;;;;;;31.15;3.63;;;;;;;;;;4962941;28;20055;-73
2023/01/14 04:21:33;;;;;;;32.92;3.85;;;;;;;;;;4970589;28;20105;-74
2023/01/14 04:24:01;;;;;;;20.35;3.20;;;;;;;;;;4967167;28;20047;-74
2023/01/14 04:26:28;;;;;;;26.33;2.90;;;;;;;;;;4970169;28;20047;-74
2023/01/14 04:28:55;;;;;;;36.05;4.53;;;;;;;;;;4969907;28;20043;-73
2023/01/14 04:31:23;;;;;;;23.70;3.40;;;;;;;;;;4964060;28;20055;-73
2023/01/14 04:33:50;;;;;;;36.95;3.85;;;;;;;;;;4970046;28;20055;-74
2023/01/14 04:36:19;;;;;;;29.45;2.88;;;;;;;;;;4970011;28;20058;-73
2023/01/14 04:38:46;;;;;;;22.50;3.70;;;;;;;;;;4965065;28;20058;-73
2023/01/14 04:43:54;;;;;;;28.38;3.38;;;;;;;;;;4957936;28;20043;-74
2023/01/14 04:46:21;;;;;;;31.15;3.67;;;;;;;;;;4958757;28;20070;-74
2023/01/14 04:48:49;;;;;;;32.92;3.53;;;;;;;;;;4967581;28;20055;-74
2023/01/14 04:51:16;;;;;;;34.45;3.42;;;;;;;;;;4966762;28;20054;-73
2023/01/14 04:53:44;;;;;;;27.58;3.13;;;;;;;;;;4967510;28;20043;-73
2023/01/14 04:56:12;;;;;;;25.23;2.83;;;;;;;;;;4969357;28;20055;-74
2023/01/14 04:58:39;;;;;;;26.83;3.38;;;;;;;;;;4968635;28;20046;-73
2023/01/14 05:01:06;;;;;;;31.60;4.20;;;;;;;;;;4967684;28;20050;-73
2023/01/14 05:03:33;;;;;;;34.45;4.32;;;;;;;;;;4967251;28;20423;-73
2023/01/14 05:06:01;;;;;;;29.77;3.38;;;;;;;;;;4966631;28;20055;-70
2023/01/14 05:08:28;;;;;;;36.22;3.92;;;;;;;;;;4969399;28;20057;-72
2023/01/14 05:10:56;;;;;;;29.75;3.38;;;;;;;;;;4968217;28;20066;-73
2023/01/14 05:13:24;;;;;;;23.77;3.20;;;;;;;;;;4954712;29;20462;-72
2023/01/14 05:15:51;;;;;;;32.38;3.10;;;;;;;;;;4954657;29;20054;-72
2023/01/14 05:18:18;;;;;;;34.55;4.10;;;;;;;;;;4936651;29;20410;-72
2023/01/14 05:20:46;;;;;;;31.25;3.67;;;;;;;;;;4953959;29;20054;-73
2023/01/14 05:23:14;;;;;;;35.15;4.25;;;;;;;;;;4949888;29;20043;-72
2023/01/14 05:25:42;;;;;;;27.27;4.53;;;;;;;;;;4951708;29;20063;-72
2023/01/14 05:28:12;;;;;;;24.98;3.20;;;;;;;;;;4951883;29;20074;-72
2023/01/14 05:30:39;;;;;;;23.60;3.47;;;;;;;;;;4950274;29;20051;-72
2023/01/14 05:33:07;;;;;;;29.15;3.70;;;;;;;;;;4934485;29;20414;-72
2023/01/14 05:35:34;;;;;;;23.67;4.47;;;;;;;;;;4951912;29;20058;-72
2023/01/14 05:38:01;;;;;;;27.80;2.85;;;;;;;;;;4951377;29;21312;-72
2023/01/14 05:40:29;;;;;;;30.30;3.40;;;;;;;;;;4951578;29;20061;-72
2023/01/14 05:45:48;;;;;;;26.85;3.38;;;;;;;;;;4950494;29;20150;-72
2023/01/14 05:48:16;;;;;;;31.90;4.30;;;;;;;;;;4953836;28;20118;-72
2023/01/14 05:50:43;;;;;;;30.60;3.95;;;;;;;;;;4952615;29;20483;-73
2023/01/14 05:53:10;;;;;;;29.08;3.08;;;;;;;;;;4952171;29;20105;-71
2023/01/14 05:55:38;;;;;;;29.05;4.03;;;;;;;;;;4948484;29;20051;-72
2023/01/14 05:58:06;;;;;;;35.30;3.47;;;;;;;;;;4948348;29;20489;-72
2023/01/14 06:06:22;;;;;;;37.72;5.07;;;;;;;;;;4951119;29;20070;-72
2023/01/14 06:08:49;;;;;;;33.78;4.07;;;;;;;;;;4948492;29;20047;-72
2023/01/14 06:11:17;;;;;;;36.85;4.45;;;;;;;;;;4957287;28;20510;-72
2023/01/14 06:13:45;;;;;;;28.92;3.20;;;;;;;;;;4973550;28;20078;-73
2023/01/14 06:16:12;;;;;;;38.15;4.43;;;;;;;;;;4965496;28;20055;-72
2023/01/14 06:18:42;;;;;;;25.00;3.05;;;;;;;;;;4970280;28;20490;-72
2023/01/14 06:21:10;;;;;;;37.65;4.55;;;;;;;;;;4968957;28;20050;-72
2023/01/14 06:23:38;;;;;;;30.35;3.63;;;;;;;;;;4969604;28;20094;-72
2023/01/14 06:26:09;;;;;;;32.10;3.75;;;;;;;;;;4969561;28;20050;-72
2023/01/14 06:28:36;;;;;;;35.15;4.45;;;;;;;;;;4965982;28;20093;-72
2023/01/14 06:31:03;;;;;;;26.48;3.95;;;;;;;;;;4963078;28;20049;-71
2023/01/14 06:33:30;;;;;;;34.58;4.93;;;;;;;;;;4966326;28;20050;-70
2023/01/14 06:36:00;;;;;;;35.67;3.80;;;;;;;;;;4968178;28;20711;-72
2023/01/14 06:38:27;;;;;;;29.38;3.78;;;;;;;;;;4970531;28;20509;-72
2023/01/14 06:40:55;;;;;;;30.63;3.75;;;;;;;;;;4969470;28;20047;-72
2023/01/14 06:43:22;;;;;;;31.05;3.75;;;;;;;;;;4969277;28;20078;-71
2023/01/14 06:45:53;;;;;;;29.38;4.55;;;;;;;;;;4961877;28;20050;-72
2023/01/14 06:48:20;;;;;;;29.73;4.53;;;;;;;;;;4971292;28;20741;-72
2023/01/14 06:50:47;;;;;;;37.05;3.97;;;;;;;;;;4964773;28;20047;-71
2023/01/14 06:53:16;;;;;;;29.77;3.47;;;;;;;;;;4972681;28;20050;-72
2023/01/14 06:55:43;;;;;;;32.60;4.85;;;;;;;;;;4970184;28;20050;-72
2023/01/14 06:58:11;;;;;;;37.70;4.43;;;;;;;;;;4973050;28;20050;-71
2023/01/14 07:00:38;;;;;;;31.25;4.47;;;;;;;;;;4972351;28;20454;-72
2023/01/14 07:03:05;;;;;;;34.63;5.43;;;;;;;;;;4965113;28;20057;-71
2023/01/14 07:05:33;;;;;;;35.58;4.93;;;;;;;;;;4965465;28;20054;-72
2023/01/14 07:08:00;;;;;;;35.80;6.13;;;;;;;;;;4968832;28;20393;-71
2023/01/14 07:10:29;;;;;;;32.00;4.38;;;;;;;;;;4968917;28;20054;-72
2023/01/14 07:12:56;;;;;;;39.30;5.35;;;;;;;;;;4966016;28;20529;-72
2023/01/14 07:15:23;;;;;;;33.65;5.55;;;;;;;;;;4970668;28;20066;-72
2023/01/14 07:17:51;;;;;;;40.60;5.85;;;;;;;;;;4968384;28;20374;-71
2023/01/14 07:20:18;;;;;;;42.72;5.82;;;;;;;;;;4968257;28;20050;-72
2023/01/14 07:22:45;;;;;;;39.75;5.97;;;;;;;;;;4965559;28;20054;-71
2023/01/14 07:25:13;;;;;;;46.55;7.07;;;;;;;;;;4969464;28;20054;-72
2023/01/14 07:27:42;;;;;;;39.90;7.68;;;;;;;;;;4968876;28;20382;-72
2023/01/14 07:30:09;;;;;;;50.80;8.38;;;;;;;;;;4969911;28;20090;-70
2023/01/14 07:32:37;;;;;;;39.05;7.53;;;;;;;;;;4967627;28;20506;-72
2023/01/14 07:35:04;;;;;;;44.95;7.63;;;;;;;;;;4969298;28;20047;-71
2023/01/14 07:37:31;;;;;;;43.90;8.40;;;;;;;;;;4968272;28;20053;-72
2023/01/14 07:39:59;;;;;;;46.65;8.65;;;;;;;;;;4968127;28;20454;-71
2023/01/14 07:42:26;;;;;;;53.35;8.65;;;;;;;;;;4968659;28;20105;-72
2023/01/14 07:44:55;;;;;;;49.28;8.00;;;;;;;;;;4966891;28;20050;-72
2023/01/14 07:47:22;;;;;;;52.38;7.50;;;;;;;;;;4964726;28;20055;-71
2023/01/14 07:49:49;;;;;;;52.67;7.93;;;;;;;;;;4965795;28;20410;-72
2023/01/14 07:52:16;;;;;;;50.22;7.10;;;;;;;;;;4967865;28;20046;-72
2023/01/14 07:54:44;;;;;;;43.20;7.55;;;;;;;;;;4970063;28;20386;-72
2023/01/14 07:57:12;;;;;;;48.05;8.15;;;;;;;;;;4969681;28;20054;-71
2023/01/14 07:59:39;;;;;;;57.20;7.53;;;;;;;;;;4970661;28;20371;-73
2023/01/14 08:02:11;;;;;;;61.58;8.30;;;;;;;;;;4965847;28;20050;-72
2023/01/14 08:04:39;;;;;;;52.38;7.40;;;;;;;;;;4969277;28;20049;-72
2023/01/14 08:07:06;;;;;;;55.63;8.38;;;;;;;;;;4963254;28;20043;-71
2023/01/14 08:09:34;;;;;;;53.20;7.38;;;;;;;;;;4964467;28;20065;-72
2023/01/14 08:12:01;;;;;;;53.80;6.45;;;;;;;;;;4964555;28;20106;-72
2023/01/14 08:14:29;;;;;;;50.38;7.18;;;;;;;;;;4962675;28;20050;-71
2023/01/14 08:16:56;;;;;;;45.97;6.05;;;;;;;;;;4964396;28;20066;-71
2023/01/14 08:19:25;;;;;;;51.92;6.18;;;;;;;;;;4969548;28;20054;-71
2023/01/14 08:21:52;;;;;;;48.47;5.60;;;;;;;;;;4962964;28;20406;-72
2023/01/14 08:24:19;;;;;;;38.90;5.32;;;;;;;;;;4970237;28;20051;-71
2023/01/14 08:26:46;;;;;;;45.88;5.43;;;;;;;;;;4968712;28;20126;-72
2023/01/14 08:29:17;;;;;;;39.55;5.03;;;;;;;;;;4967549;28;20054;-72
2023/01/14 08:31:44;;;;;;;46.92;5.13;;;;;;;;;;4969496;28;20413;-72
2023/01/14 08:34:13;;;;;;;36.35;5.13;;;;;;;;;;4968222;28;20054;-73
2023/01/14 08:36:41;;;;;;;51.85;5.55;;;;;;;;;;4969919;28;20425;-72
2023/01/14 08:39:10;;;;;;;43.30;4.95;;;;;;;;;;4965035;28;20490;-73
2023/01/14 08:41:37;;;;;;;40.13;5.00;;;;;;;;;;4966172;28;20073;-71
2023/01/14 08:44:05;;;;;;;39.80;4.68;;;;;;;;;;4964143;28;20059;-73
2023/01/14 08:46:32;;;;;;;34.60;4.50;;;;;;;;;;4968758;28;20050;-72
2023/01/14 08:48:59;;;;;;;48.30;4.80;;;;;;;;;;4965646;28;20051;-71
2023/01/14 08:51:28;;;;;;;44.25;4.75;;;;;;;;;;4969496;28;20059;-73
2023/01/14 08:54:00;;;;;;;36.70;4.32;;;;;;;;;;4968826;28;20502;-72
2023/01/14 08:56:28;;;;;;;38.65;5.55;;;;;;;;;;4964092;28;20130;-72
2023/01/14 08:58:55;;;;;;;56.75;4.63;;;;;;;;;;4969715;28;20381;-72
2023/01/14 09:01:23;;;;;;;42.88;5.40;;;;;;;;;;4969403;28;20058;-71
2023/01/14 09:03:52;;;;;;;39.33;4.13;;;;;;;;;;4963208;28;20109;-71
2023/01/14 09:06:20;;;;;;;41.40;5.82;;;;;;;;;;4962193;28;20051;-72
2023/01/14 09:17:10;;;;;;;40.65;4.70;;;;;;;;;;4969057;28;20070;-72
2023/01/14 09:19:39;;;;;;;32.55;3.95;;;;;;;;;;4965991;28;20054;-73
2023/01/14 09:22:07;;;;;;;34.30;3.72;;;;;;;;;;4966690;28;20059;-72
2023/01/14 09:24:34;;;;;;;28.67;4.13;;;;;;;;;;4967070;28;20059;-73
2023/01/14 09:27:02;;;;;;;29.35;3.72;;;;;;;;;;4964831;28;20405;-72
2023/01/14 09:29:30;;;;;;;28.88;4.10;;;;;;;;;;4967171;28;20520;-73
2023/01/14 09:31:57;;;;;;;40.05;4.05;;;;;;;;;;4965444;28;20085;-72
2023/01/14 09:34:24;;;;;;;32.38;5.03;;;;;;;;;;4963477;28;20063;-74
2023/01/14 09:36:52;;;;;;;26.17;4.07;;;;;;;;;;4960611;28;20474;-74
2023/01/14 09:39:20;;;;;;;30.08;3.72;;;;;;;;;;4956500;28;20047;-74
2023/01/14 09:41:51;;;;;;;26.27;3.22;;;;;;;;;;4964499;28;20066;-74
2023/01/14 09:44:20;;;;;;;22.05;4.10;;;;;;;;;;4960592;28;20090;-74
2023/01/14 09:46:47;;;;;;;22.30;3.85;;;;;;;;;;4969728;28;20501;-74
2023/01/14 09:49:17;;;;;;;30.85;4.28;;;;;;;;;;4961440;28;20062;-74
2023/01/14 09:52:03;;;;;;;24.05;3.45;;;;;;;;;;4960737;28;20055;-74
2023/01/14 09:54:34;;;;;;;21.45;3.05;;;;;;;;;;4967165;28;20047;-74
2023/01/14 09:57:07;;;;;;;20.40;3.90;;;;;;;;;;4965758;28;20516;-74
2023/01/14 09:59:40;;;;;;;14.95;3.17;;;;;;;;;;4969849;28;20130;-74
2023/01/14 10:02:07;;;;;;;;;;;;;;;;;;4968899;28;20050;-74
2023/01/14 10:04:50;;;;;;;22.45;3.03;;;;;;;;;;4968400;28;19922;-74
2023/01/14 10:07:19;;;;;;;16.77;2.80;;;;;;;;;;4970326;28;20055;-74
2023/01/14 10:09:49;;;;;;;17.27;3.05;;;;;;;;;;4968356;28;20050;-74
2023/01/14 10:12:18;;;;;;;22.70;3.25;;;;;;;;;;4983692;28;20050;-74
2023/01/14 10:14:51;;;;;;;18.50;2.55;;;;;;;;;;4967868;28;20462;-74
2023/01/14 10:17:21;;;;;;;14.13;2.83;;;;;;;;;;4971011;28;20046;-74
2023/01/14 10:19:50;;;;;;;13.02;2.55;;;;;;;;;;4971108;28;20058;-75
2023/01/14 10:22:24;;;;;;;16.85;3.13;;;;;;;;;;4968069;28;20050;-74
2023/01/14 10:24:52;;;;;;;11.77;2.33;;;;;;;;;;4969089;28;20043;-75
2023/01/14 10:27:20;;;;;;;18.40;2.78;;;;;;;;;;4965086;28;20046;-75
2023/01/14 10:29:49;;;;;;;18.10;3.00;;;;;;;;;;4972594;28;20406;-74
2023/01/14 10:32:17;;;;;;;12.02;2.45;;;;;;;;;;4971324;28;20062;-73
2023/01/14 10:34:46;;;;;;;15.00;3.00;;;;;;;;;;4969344;28;20059;-74
2023/01/14 10:37:13;;;;;;;10.00;2.65;;;;;;;;;;4961192;28;20045;-74
2023/01/14 10:39:50;;;;;;;10.02;2.22;;;;;;;;;;4968023;28;20486;-74
2023/01/14 10:42:20;;;;;;;14.43;2.38;;;;;;;;;;4968968;28;20058;-73
2023/01/14 10:44:48;;;;;;;9.73;2.08;;;;;;;;;;4968292;28;20051;-74
2023/01/14 10:47:17;;;;;;;11.25;2.58;;;;;;;;;;4965013;28;20359;-74
2023/01/14 10:49:46;;;;;;;10.85;3.13;;;;;;;;;;4968543;28;20390;-75
2023/01/14 10:52:23;;;;;;;9.30;2.90;;;;;;;;;;4966887;28;20047;-74
2023/01/14 10:54:57;;;;;;;8.57;2.50;;;;;;;;;;4964200;28;20050;-74
2023/01/14 10:57:25;;;;;;;9.45;2.13;;;;;;;;;;4971422;28;20050;-75
2023/01/14 10:59:54;;;;;;;13.18;2.47;;;;;;;;;;4969593;28;20062;-74
2023/01/14 11:02:23;;;;;;;12.93;2.38;;;;;;;;;;4967714;28;20065;-74
2023/01/14 11:04:51;;;;;;;14.73;2.50;;;;;;;;;;4968567;28;20047;-74
2023/01/14 11:07:22;;;;;;;10.38;2.67;;;;;;;;;;4964701;28;20046;-74
2023/01/14 11:09:50;;;;;;;10.65;2.70;;;;;;;;;;4967307;28;20051;-74
2023/01/14 11:12:27;;;;;;;9.93;2.58;;;;;;;;;;4968338;28;20063;-74
2023/01/14 11:14:56;;;;;;;8.60;2.63;;;;;;;;;;4962845;28;20047;-72
2023/01/14 11:17:24;;;;;;;5.05;2.58;;;;;;;;;;4968215;28;20043;-73
2023/01/14 11:19:51;;;;;;;6.53;2.50;;;;;;;;;;4967280;28;20491;-73
2023/01/14 11:22:19;;;;;;;7.40;2.50;;;;;;;;;;4967995;28;20049;-72
2023/01/14 11:24:48;;;;;;;6.50;3.03;;;;;;;;;;4968347;28;20069;-73
2023/01/14 11:27:16;;;;;;;10.50;2.70;;;;;;;;;;4969298;28;20093;-71
2023/01/14 11:29:46;;;;;;;10.90;2.58;;;;;;;;;;4967224;28;20524;-72
2023/01/14 11:32:16;;;;;;;6.82;2.65;;;;;;;;;;4982824;28;20051;-71
2023/01/14 11:34:47;;;;;;;11.57;3.17;;;;;;;;;;4966412;28;20043;-73
2023/01/14 11:37:17;;;;;;;12.48;3.45;;;;;;;;;;4970357;28;20051;-71
2023/01/14 11:39:49;;;;;;;9.88;3.60;;;;;;;;;;4969662;28;20051;-74
2023/01/14 11:42:35;;;;;;;10.88;3.17;;;;;;;;;;4964825;28;20055;-71
2023/01/14 11:45:04;;;;;;;7.55;3.00;;;;;;;;;;4967157;28;20069;-72
2023/01/14 11:47:45;;;;;;;11.57;3.33;;;;;;;;;;4968848;28;20042;-72
2023/01/14 11:50:15;;;;;;;11.60;2.80;;;;;;;;;;4966959;28;20062;-72
2023/01/14 11:52:55;;;;;;;8.00;2.60;;;;;;;;;;4969076;28;20109;-72
2023/01/14 11:55:22;;;;;;;13.85;2.80;;;;;;;;;;4970553;28;20055;-72
2023/01/14 11:57:49;;;;;;;8.70;2.90;;;;;;;;;;4966479;28;20375;-73
2023/01/14 12:00:17;;;;;;;5.50;2.30;;;;;;;;;;4967550;28;20619;-73
2023/01/14 12:02:48;;;;;;;6.53;2.67;;;;;;;;;;4970865;28;20410;-72
2023/01/14 12:05:16;;;;;;;5.13;2.90;;;;;;;;;;4967961;28;20058;-71
2023/01/14 12:07:45;;;;;;;7.38;2.90;;;;;;;;;;4969996;28;20054;-72
2023/01/14 12:10:19;;;;;;;9.05;2.70;;;;;;;;;;4967329;28;20054;-72
2023/01/14 12:18:26;;;;;;;6.80;3.13;;;;;;;;;;4964908;28;20491;-73
2023/01/14 12:20:54;;;;;;;8.45;2.97;;;;;;;;;;4968355;28;20070;-73
2023/01/14 12:23:23;;;;;;;7.63;3.17;;;;;;;;;;4966275;28;20054;-72
2023/01/14 12:25:53;;;;;;;7.00;3.05;;;;;;;;;;4969065;28;20046;-72
2023/01/14 12:28:29;;;;;;;9.57;3.22;;;;;;;;;;4968467;28;20457;-73
2023/01/14 12:30:58;;;;;;;6.45;3.13;;;;;;;;;;4969302;28;20057;-72
2023/01/14 12:33:39;;;;;;;7.18;3.08;;;;;;;;;;4968091;28;20477;-71
2023/01/14 12:36:12;;;;;;;9.45;3.13;;;;;;;;;;4963834;28;20055;-72
2023/01/14 12:47:03;;;;;;;7.63;2.85;;;;;;;;;;4967200;28;20085;-72
2023/01/14 12:49:32;;;;;;;4.75;1.98;;;;;;;;;;4967443;28;20054;-71
2023/01/14 12:52:00;;;;;;;4.28;2.20;;;;;;;;;;4967568;28;20433;-72
2023/01/14 12:54:30;;;;;;;4.75;2.22;;;;;;;;;;4968717;28;20093;-72
2023/01/14 12:56:58;;;;;;;5.80;2.50;;;;;;;;;;4966474;28;20517;-72
2023/01/14 12:59:28;;;;;;;5.00;2.50;;;;;;;;;;4969427;28;20059;-73
2023/01/14 13:01:57;;;;;;;4.93;2.50;;;;;;;;;;4965380;28;20058;-73
2023/01/14 13:04:25;;;;;;;3.33;2.00;;;;;;;;;;4968990;28;20401;-72
2023/01/14 13:06:57;;;;;;;5.50;2.40;;;;;;;;;;4966104;28;20043;-71
2023/01/14 13:09:27;;;;;;;4.28;2.28;;;;;;;;;;4968044;28;20086;-73
2023/01/14 13:11:55;;;;;;;10.60;2.20;;;;;;;;;;4962428;28;20047;-72
2023/01/14 13:14:34;;;;;;;4.10;2.03;;;;;;;;;;4963870;28;20565;-73
2023/01/14 13:17:02;;;;;;;5.78;2.47;;;;;;;;;;4984597;28;20067;-73
2023/01/14 13:19:50;;;;;;;8.35;3.08;;;;;;;;;;4967656;28;20142;-73
2023/01/14 13:22:36;;;;;;;5.50;3.28;;;;;;;;;;4963895;28;20046;-72
2023/01/14 13:25:13;;;;;;;6.85;3.00;;;;;;;;;;4964251;28;20054;-73
2023/01/14 13:27:41;;;;;;;5.35;3.20;;;;;;;;;;4962497;28;20047;-73
2023/01/14 13:30:27;;;;;;;6.53;3.67;;;;;;;;;;4964822;28;20082;-73
2023/01/14 13:33:06;;;;;;;7.93;4.28;;;;;;;;;;4969081;28;20077;-73
2023/01/14 13:35:34;;;;;;;9.68;5.13;;;;;;;;;;4965641;28;20106;-73
2023/01/14 13:38:02;;;;;;;8.40;4.60;;;;;;;;;;4985687;28;20153;-73
2023/01/14 13:40:33;;;;;;;6.55;3.72;;;;;;;;;;4960640;28;20062;-73
2023/01/14 13:43:03;;;;;;;10.02;4.78;;;;;;;;;;4971950;28;20050;-72
2023/01/14 13:45:31;;;;;;;11.13;5.03;;;;;;;;;;4964401;28;20490;-72
2023/01/14 13:48:00;;;;;;;8.27;4.47;;;;;;;;;;4969851;28;20042;-71
2023/01/14 13:50:30;;;;;;;10.27;4.18;;;;;;;;;;4970283;28;20542;-72
2023/01/14 13:53:02;;;;;;;9.88;4.57;;;;;;;;;;4972962;28;20055;-73
2023/01/14 13:55:32;;;;;;;6.65;4.72;;;;;;;;;;4972477;28;20061;-72
2023/01/14 13:58:00;;;;;;;5.90;4.40;;;;;;;;;;4965602;28;20043;-72
2023/01/14 14:00:33;;;;;;;6.82;5.15;;;;;;;;;;4968669;28;20409;-71
2023/01/14 14:03:16;;;;;;;12.48;5.10;;;;;;;;;;4966683;28;20557;-72
2023/01/14 14:05:44;;;;;;;10.85;5.03;;;;;;;;;;4981416;28;20047;-73
2023/01/14 14:08:20;;;;;;;7.72;5.05;;;;;;;;;;4969665;28;20218;-72
2023/01/14 14:10:57;;;;;;;7.43;4.53;;;;;;;;;;4971584;28;20082;-72
2023/01/14 14:16:14;;;;;;;8.43;5.18;;;;;;;;;;4965212;28;20439;-72
2023/01/14 14:18:42;;;;;;;8.23;4.70;;;;;;;;;;4972481;28;20047;-72
2023/01/14 14:21:14;;;;;;;8.88;4.68;;;;;;;;;;4967417;28;20513;-72
2023/01/14 14:23:44;;;;;;;10.23;4.60;;;;;;;;;;4966901;28;20051;-72
2023/01/14 14:26:14;;;;;;;7.45;4.47;;;;;;;;;;4967821;28;20399;-72
2023/01/14 14:28:42;;;;;;;7.60;4.10;;;;;;;;;;4966014;28;20055;-71
2023/01/14 14:31:13;;;;;;;6.38;4.20;;;;;;;;;;4968317;28;20485;-72
2023/01/14 14:33:41;;;;;;;7.55;4.30;;;;;;;;;;4959225;28;20138;-73
2023/01/14 14:36:10;;;;;;;6.25;3.13;;;;;;;;;;4962318;28;20123;-72
2023/01/14 14:38:38;;;;;;;5.35;3.50;;;;;;;;;;4968731;28;20058;-72
2023/01/14 14:41:06;;;;;;;4.68;3.15;;;;;;;;;;4965442;28;20054;-71
2023/01/14 14:43:35;;;;;;;8.70;3.05;;;;;;;;;;4966663;28;20497;-72
2023/01/14 14:46:03;;;;;;;5.35;2.15;;;;;;;;;;4965071;28;20069;-72
2023/01/14 14:48:31;;;;;;;7.90;2.47;;;;;;;;;;4970715;28;20054;-72
2023/01/14 14:50:58;;;;;;;4.82;2.10;;;;;;;;;;4963540;28;20049;-72
2023/01/14 14:53:27;;;;;;;7.88;2.45;;;;;;;;;;4968207;28;20137;-72
2023/01/14 14:55:56;;;;;;;7.22;2.03;;;;;;;;;;4967531;28;20058;-72
2023/01/14 14:58:24;;;;;;;7.57;1.80;;;;;;;;;;4959914;28;20141;-72
2023/01/14 15:00:56;;;;;;;7.97;1.75;;;;;;;;;;4967562;28;20047;-72
2023/01/14 15:03:24;;;;;;;8.50;2.20;;;;;;;;;;4963262;28;20059;-73
2023/01/14 15:05:52;;;;;;;8.50;2.10;;;;;;;;;;4957397;28;20383;-73
2023/01/14 15:08:23;;;;;;;4.35;1.65;;;;;;;;;;4968882;28;20051;-73
2023/01/14 15:10:51;;;;;;;6.22;1.67;;;;;;;;;;4966382;28;20075;-73
2023/01/14 15:13:22;;;;;;;4.15;1.65;;;;;;;;;;4963698;28;20054;-72
2023/01/14 15:16:03;;;;;;;7.50;1.50;;;;;;;;;;4962974;28;20051;-72
2023/01/14 15:18:34;;;;;;;8.75;1.70;;;;;;;;;;4967851;28;20118;-73
2023/01/14 15:21:02;;;;;;;4.95;1.30;;;;;;;;;;4963664;28;20054;-73
2023/01/14 15:23:29;;;;;;;6.38;1.50;;;;;;;;;;4964101;28;20062;-72
2023/01/14 15:25:57;;;;;;;7.32;1.92;;;;;;;;;;4969110;28;20057;-71
2023/01/14 15:28:24;;;;;;;9.55;1.70;;;;;;;;;;4971780;28;20051;-71